createdAt,value
2023-05-02T00:00:15.875Z,7.93
2023-05-02T00:02:42.423Z,8.27
2023-05-02T00:05:09.225Z,7.72
2023-05-02T00:07:36.098Z,7.22
2023-05-02T00:10:04.406Z,7.13
2023-05-02T00:12:30.968Z,7.00
2023-05-02T00:14:57.370Z,6.93
2023-05-02T00:17:23.794Z,6.85
2023-05-02T00:19:50.342Z,6.90
2023-05-02T00:22:16.676Z,6.88
2023-05-02T00:24:43.152Z,6.80
2023-05-02T00:27:10.954Z,6.57
2023-05-02T00:29:37.357Z,6.80
2023-05-02T00:32:03.844Z,7.25
2023-05-02T00:34:30.367Z,7.38
2023-05-02T00:36:56.917Z,7.18
2023-05-02T00:39:23.440Z,6.78
2023-05-02T00:41:49.836Z,7.38
2023-05-02T00:44:17.604Z,7.47
2023-05-02T00:46:44.097Z,6.80
2023-05-02T00:49:10.600Z,7.65
2023-05-02T00:51:37.000Z,7.18
2023-05-02T00:54:03.493Z,7.78
2023-05-02T00:56:29.898Z,6.95
2023-05-02T00:58:56.372Z,7.47
2023-05-02T01:01:33.279Z,7.85
2023-05-02T01:04:04.338Z,7.63
2023-05-02T01:06:36.645Z,8.20
2023-05-02T01:09:09.885Z,8.38
2023-05-02T01:11:42.418Z,8.50
2023-05-02T01:14:10.297Z,8.75
2023-05-02T01:16:38.949Z,8.82
2023-05-02T01:19:05.812Z,9.10
2023-05-02T01:21:33.269Z,8.90
2023-05-02T01:24:02.719Z,9.32
2023-05-02T01:29:00.534Z,10.32
2023-05-02T01:31:28.460Z,9.68
2023-05-02T01:33:55.777Z,10.73
2023-05-02T01:36:22.793Z,9.02
2023-05-02T01:38:49.993Z,9.55
2023-05-02T01:41:16.842Z,10.15
2023-05-02T01:43:43.759Z,9.93
2023-05-02T01:46:12.972Z,10.57
2023-05-02T01:48:40.763Z,9.88
2023-05-02T01:51:08.110Z,9.05
2023-05-02T01:53:35.515Z,8.52
2023-05-02T01:56:01.916Z,8.88
2023-05-02T01:58:29.465Z,8.63
2023-05-02T02:00:56.572Z,8.98
2023-05-02T02:03:24.368Z,8.85
2023-05-02T02:05:52.921Z,8.25
2023-05-02T02:08:19.374Z,8.57
2023-05-02T02:10:49.423Z,8.85
2023-05-02T02:13:17.856Z,9.88
2023-05-02T02:15:46.905Z,8.10
2023-05-02T02:18:14.719Z,10.45
2023-05-02T02:20:43.747Z,9.50
2023-05-02T02:23:10.894Z,10.35
2023-05-02T02:25:37.704Z,9.43
2023-05-02T02:28:04.289Z,10.15
2023-05-02T02:30:30.834Z,10.27
2023-05-02T02:32:57.276Z,9.90
2023-05-02T02:35:25.938Z,10.77
2023-05-02T02:37:57.141Z,10.83
2023-05-02T02:40:28.464Z,10.82
2023-05-02T02:42:59.163Z,11.00
2023-05-02T02:45:29.994Z,11.20
2023-05-02T02:48:02.561Z,11.68
2023-05-02T02:50:31.295Z,11.27
2023-05-02T02:53:00.572Z,11.20
2023-05-02T02:55:38.314Z,11.82
2023-05-02T02:58:09.761Z,12.43
2023-05-02T03:00:36.482Z,12.00
2023-05-02T03:03:03.146Z,12.15
2023-05-02T03:05:30.209Z,12.15
2023-05-02T03:07:58.876Z,12.20
2023-05-02T03:10:26.776Z,12.40
2023-05-02T03:12:53.174Z,12.20
2023-05-02T03:15:25.904Z,12.75
2023-05-02T03:17:52.318Z,12.93
2023-05-02T03:20:18.728Z,13.82
2023-05-02T03:22:45.090Z,13.40
2023-05-02T03:25:11.456Z,12.75
2023-05-02T03:27:39.227Z,13.10
2023-05-02T03:30:06.361Z,13.82
2023-05-02T03:32:32.785Z,14.90
2023-05-02T03:34:59.263Z,13.30
2023-05-02T03:37:25.651Z,13.57
2023-05-02T03:39:52.078Z,14.65
2023-05-02T03:42:18.465Z,13.75
2023-05-02T03:44:46.177Z,12.52
2023-05-02T03:47:12.754Z,14.63
2023-05-02T03:49:39.803Z,14.65
2023-05-02T03:52:06.192Z,15.18
2023-05-02T03:54:32.684Z,15.23
2023-05-02T03:56:59.143Z,16.60
2023-05-02T03:59:25.550Z,16.02
2023-05-02T04:01:53.282Z,16.23
2023-05-02T04:04:19.713Z,16.25
2023-05-02T04:06:46.110Z,17.67
2023-05-02T04:09:12.521Z,17.42
2023-05-02T04:11:38.920Z,17.13
2023-05-02T04:14:05.280Z,16.65
2023-05-02T04:16:31.731Z,16.33
2023-05-02T04:18:59.519Z,16.60
2023-05-02T04:21:25.874Z,16.77
2023-05-02T04:23:52.429Z,16.00
2023-05-02T04:26:18.783Z,16.33
2023-05-02T04:28:45.199Z,17.42
2023-05-02T04:31:11.591Z,16.58
2023-05-02T04:33:38.082Z,16.95
2023-05-02T04:36:06.440Z,16.17
2023-05-02T04:38:32.832Z,15.95
2023-05-02T04:40:59.252Z,17.63
2023-05-02T04:43:35.364Z,16.90
2023-05-02T04:46:01.780Z,17.13
2023-05-02T04:48:28.193Z,18.08
2023-05-02T04:50:54.588Z,16.73
2023-05-02T04:53:22.822Z,17.13
2023-05-02T04:55:49.310Z,18.20
2023-05-02T04:58:15.787Z,18.02
2023-05-02T05:00:42.191Z,18.42
2023-05-02T05:03:08.676Z,18.02
2023-05-02T05:05:35.156Z,18.63
2023-05-02T05:08:01.606Z,17.48
2023-05-02T05:10:29.927Z,18.60
2023-05-02T05:12:56.328Z,18.65
2023-05-02T05:15:22.733Z,17.77
2023-05-02T05:17:49.173Z,17.85
2023-05-02T05:20:15.666Z,18.25
2023-05-02T05:22:42.655Z,18.85
2023-05-02T05:25:09.449Z,17.58
2023-05-02T05:27:37.209Z,17.45
2023-05-02T05:30:03.938Z,17.17
2023-05-02T05:32:30.437Z,16.38
2023-05-02T05:34:56.858Z,16.15
2023-05-02T05:37:23.242Z,16.92
2023-05-02T05:39:49.628Z,16.92
2023-05-02T05:42:15.993Z,17.83
2023-05-02T05:44:43.737Z,18.70
2023-05-02T05:47:10.223Z,18.23
2023-05-02T05:49:38.558Z,18.02
2023-05-02T05:52:05.257Z,18.23
2023-05-02T05:54:31.665Z,18.63
2023-05-02T05:56:58.046Z,19.20
2023-05-02T05:59:24.470Z,18.23
2023-05-02T06:01:52.466Z,19.08
2023-05-02T06:04:18.874Z,18.60
2023-05-02T06:06:45.306Z,19.58
2023-05-02T06:09:11.741Z,20.88
2023-05-02T06:11:38.199Z,18.98
2023-05-02T06:14:04.564Z,19.63
2023-05-02T06:16:31.022Z,21.65
2023-05-02T06:18:58.773Z,20.77
2023-05-02T06:21:25.188Z,20.80
2023-05-02T06:23:55.102Z,21.45
2023-05-02T06:26:21.573Z,20.70
2023-05-02T06:28:48.446Z,20.10
2023-05-02T06:31:15.003Z,19.33
2023-05-02T06:33:41.419Z,19.15
2023-05-02T06:36:09.305Z,18.92
2023-05-02T06:38:35.715Z,20.10
2023-05-02T06:41:02.143Z,19.55
2023-05-02T06:43:28.570Z,19.58
2023-05-02T06:45:55.175Z,20.60
2023-05-02T06:48:21.676Z,19.17
2023-05-02T06:50:48.163Z,19.90
2023-05-02T06:53:16.029Z,20.73
2023-05-02T06:55:42.434Z,20.35
2023-05-02T06:58:08.916Z,20.70
2023-05-02T07:00:36.175Z,19.63
2023-05-02T07:03:02.791Z,20.30
2023-05-02T07:05:29.551Z,20.67
2023-05-02T07:07:56.018Z,18.70
2023-05-02T07:10:23.935Z,19.40
2023-05-02T07:12:50.360Z,19.77
2023-05-02T07:15:16.976Z,18.10
2023-05-02T07:17:43.419Z,18.80
2023-05-02T07:20:10.620Z,17.50
2023-05-02T07:22:37.046Z,18.13
2023-05-02T07:25:12.389Z,17.90
2023-05-02T07:27:40.366Z,17.33
2023-05-02T07:30:09.592Z,19.73
2023-05-02T07:32:36.177Z,19.27
2023-05-02T07:35:02.714Z,20.27
2023-05-02T07:37:34.182Z,20.25
2023-05-02T07:40:01.299Z,19.67
2023-05-02T07:42:28.921Z,20.20
2023-05-02T07:44:56.850Z,20.27
2023-05-02T07:47:23.329Z,18.98
2023-05-02T07:49:51.194Z,19.25
2023-05-02T07:52:17.672Z,19.45
2023-05-02T07:54:44.129Z,19.23
2023-05-02T07:57:10.523Z,18.77
2023-05-02T07:59:36.897Z,18.65
2023-05-02T08:02:04.688Z,19.17
2023-05-02T08:04:31.103Z,19.15
2023-05-02T08:06:57.632Z,17.27
2023-05-02T08:09:24.036Z,16.42
2023-05-02T08:11:50.432Z,18.38
2023-05-02T08:14:16.814Z,18.90
2023-05-02T08:16:45.589Z,17.60
2023-05-02T08:19:15.044Z,18.67
2023-05-02T08:21:42.219Z,18.77
2023-05-02T08:24:08.608Z,17.95
2023-05-02T08:26:35.004Z,17.35
2023-05-02T08:29:01.515Z,19.17
2023-05-02T08:31:27.947Z,16.67
2023-05-02T08:33:54.438Z,16.75
2023-05-02T08:36:22.300Z,18.17
2023-05-02T08:38:48.735Z,18.75
2023-05-02T08:41:15.808Z,19.38
2023-05-02T08:43:42.282Z,20.55
2023-05-02T08:46:11.541Z,20.20
2023-05-02T08:48:38.461Z,19.80
2023-05-02T08:51:08.025Z,19.02
2023-05-02T08:53:36.077Z,20.30
2023-05-02T08:56:02.854Z,21.17
2023-05-02T08:58:29.234Z,18.70
2023-05-02T09:00:55.822Z,18.20
2023-05-02T09:03:27.507Z,16.25
2023-05-02T09:05:54.406Z,14.68
2023-05-02T09:08:24.229Z,14.95
2023-05-02T09:10:52.062Z,13.20
2023-05-02T09:13:28.273Z,14.65
2023-05-02T09:15:57.220Z,15.30
2023-05-02T09:18:23.564Z,15.98
2023-05-02T09:20:50.046Z,14.80
2023-05-02T09:23:18.768Z,14.70
2023-05-02T09:25:45.907Z,14.65
2023-05-02T09:28:13.910Z,17.35
2023-05-02T09:30:40.383Z,15.95
2023-05-02T09:33:06.881Z,16.90
2023-05-02T09:35:33.313Z,15.27
2023-05-02T09:37:59.673Z,15.52
2023-05-02T09:40:26.053Z,14.70
2023-05-02T09:42:52.477Z,15.48
2023-05-02T09:45:23.964Z,16.40
2023-05-02T09:47:50.591Z,15.48
2023-05-02T09:50:33.031Z,15.57
2023-05-02T09:53:03.961Z,16.73
2023-05-02T09:55:30.357Z,17.25
2023-05-02T09:57:56.767Z,18.75
2023-05-02T10:00:37.455Z,21.30
2023-05-02T10:03:06.257Z,18.80
2023-05-02T10:05:33.367Z,18.27
2023-05-02T10:07:59.968Z,17.35
2023-05-02T10:10:26.499Z,17.23
2023-05-02T10:12:53.888Z,19.35
2023-05-02T10:15:22.401Z,18.75
2023-05-02T10:17:51.938Z,18.43
2023-05-02T10:20:22.354Z,18.00
2023-05-02T10:22:49.745Z,19.73
2023-05-02T10:25:16.214Z,19.10
2023-05-02T10:27:43.021Z,18.00
2023-05-02T10:30:10.236Z,18.70
2023-05-02T10:32:37.062Z,19.40
2023-05-02T10:35:06.149Z,18.52
2023-05-02T10:37:34.339Z,17.02
2023-05-02T10:40:01.036Z,16.75
2023-05-02T10:42:28.121Z,16.85
2023-05-02T10:44:54.502Z,17.52
2023-05-02T10:47:21.554Z,17.40
2023-05-02T10:49:51.834Z,17.42
2023-05-02T10:52:29.941Z,18.20
2023-05-02T10:55:12.841Z,17.60
2023-05-02T10:57:54.078Z,17.67
2023-05-02T11:00:21.083Z,18.40
2023-05-02T11:02:48.714Z,19.70
2023-05-02T11:05:15.267Z,18.77
2023-05-02T11:07:43.050Z,19.35
2023-05-02T11:10:25.891Z,19.10
2023-05-02T11:12:52.891Z,19.95
2023-05-02T11:15:34.139Z,19.98
2023-05-02T11:18:00.866Z,22.73
2023-05-02T11:20:27.322Z,22.42
2023-05-02T11:22:55.965Z,24.23
2023-05-02T11:25:35.752Z,25.27
2023-05-02T11:28:02.238Z,22.30
2023-05-02T11:30:38.480Z,21.27
2023-05-02T11:33:12.154Z,22.15
2023-05-02T11:35:41.699Z,17.27
2023-05-02T11:38:10.478Z,17.00
2023-05-02T11:40:36.901Z,16.83
2023-05-02T11:43:13.182Z,17.50
2023-05-02T11:45:40.728Z,16.80
2023-05-02T11:48:07.500Z,15.40
2023-05-02T11:50:34.140Z,12.23
2023-05-02T11:53:00.525Z,13.45
2023-05-02T11:55:28.303Z,12.70
2023-05-02T11:57:55.500Z,11.27
2023-05-02T12:00:26.672Z,9.77
2023-05-02T12:02:53.178Z,10.40
2023-05-02T12:05:28.469Z,10.55
2023-05-02T12:07:54.887Z,10.32
2023-05-02T12:10:21.276Z,10.18
2023-05-02T12:12:49.793Z,10.93
2023-05-02T12:15:16.226Z,11.23
2023-05-02T12:17:43.704Z,12.02
2023-05-02T12:20:11.062Z,13.90
2023-05-02T12:22:37.550Z,13.68
2023-05-02T12:25:05.077Z,16.70
2023-05-02T12:27:31.689Z,15.35
2023-05-02T12:29:59.741Z,14.95
2023-05-02T12:32:30.425Z,15.63
2023-05-02T12:34:57.180Z,14.80
2023-05-02T12:37:24.059Z,13.40
2023-05-02T12:39:50.630Z,13.55
2023-05-02T12:42:17.532Z,12.60
2023-05-02T12:44:45.167Z,12.02
2023-05-02T12:47:13.329Z,13.55
2023-05-02T12:49:49.086Z,12.68
2023-05-02T12:52:15.477Z,12.02
2023-05-02T12:54:41.837Z,12.10
2023-05-02T12:57:08.341Z,10.25
2023-05-02T12:59:34.809Z,9.90
2023-05-02T13:02:01.233Z,10.95
2023-05-02T13:04:35.630Z,10.52
2023-05-02T13:07:02.093Z,10.55
2023-05-02T13:09:28.553Z,10.38
2023-05-02T13:11:54.915Z,9.60
2023-05-02T13:14:21.297Z,9.82
2023-05-02T13:16:49.077Z,10.05
2023-05-02T13:19:15.579Z,10.27
2023-05-02T13:21:43.303Z,9.68
2023-05-02T13:24:09.695Z,10.48
2023-05-02T13:26:36.090Z,9.13
2023-05-02T13:29:02.513Z,9.50
2023-05-02T13:31:29.097Z,9.50
2023-05-02T13:33:55.588Z,8.90
2023-05-02T13:36:21.999Z,9.35
2023-05-02T13:38:49.987Z,10.15
2023-05-02T13:41:16.333Z,9.30
2023-05-02T13:43:42.761Z,9.75
2023-05-02T13:46:09.232Z,9.23
2023-05-02T13:48:35.602Z,9.48
2023-05-02T13:51:01.984Z,9.32
2023-05-02T13:53:28.367Z,8.00
2023-05-02T13:55:56.126Z,8.05
2023-05-02T13:58:22.506Z,7.22
2023-05-02T14:00:48.869Z,7.68
2023-05-02T14:03:15.508Z,7.10
2023-05-02T14:05:41.915Z,6.43
2023-05-02T14:08:08.319Z,6.95
2023-05-02T14:10:34.706Z,6.93
2023-05-02T14:13:02.512Z,6.20
2023-05-02T14:15:28.893Z,6.80
2023-05-02T14:17:55.376Z,6.68
2023-05-02T14:20:21.948Z,6.38
2023-05-02T14:22:48.288Z,6.07
2023-05-02T14:25:14.714Z,5.70
2023-05-02T14:27:41.150Z,5.63
2023-05-02T14:30:09.533Z,6.75
2023-05-02T14:32:35.962Z,5.85
2023-05-02T14:35:02.332Z,6.18
2023-05-02T14:37:28.758Z,5.90
2023-05-02T14:39:55.257Z,6.38
2023-05-02T14:42:21.668Z,7.18
2023-05-02T14:44:48.113Z,6.85
2023-05-02T14:47:17.013Z,7.93
2023-05-02T14:49:43.616Z,7.07
2023-05-02T14:52:09.999Z,7.07
2023-05-02T14:54:36.380Z,7.80
2023-05-02T14:57:02.836Z,7.53
2023-05-02T14:59:29.578Z,7.00
2023-05-02T15:01:56.052Z,7.53
2023-05-02T15:04:23.986Z,7.07
2023-05-02T15:06:50.599Z,7.40
2023-05-02T15:09:17.066Z,8.23
2023-05-02T15:11:43.792Z,7.75
2023-05-02T15:14:10.148Z,8.38
2023-05-02T15:16:36.609Z,8.05
2023-05-02T15:19:03.110Z,7.72
2023-05-02T15:21:30.983Z,7.50
2023-05-02T15:23:57.455Z,6.70
2023-05-02T15:26:23.915Z,7.13
2023-05-02T15:28:50.388Z,6.88
2023-05-02T15:31:16.871Z,6.82
2023-05-02T15:33:43.268Z,7.47
2023-05-02T15:36:09.848Z,7.97
2023-05-02T15:38:37.606Z,6.82
2023-05-02T15:41:03.998Z,7.53
2023-05-02T15:43:30.406Z,7.15
2023-05-02T15:45:57.714Z,7.10
2023-05-02T15:48:26.883Z,7.30
2023-05-02T15:50:53.289Z,7.18
2023-05-02T15:53:20.079Z,8.02
2023-05-02T15:55:47.878Z,7.07
2023-05-02T15:58:14.354Z,7.28
2023-05-02T16:00:40.774Z,7.38
2023-05-02T16:03:07.254Z,7.93
2023-05-02T16:05:33.704Z,7.20
2023-05-02T16:08:00.163Z,7.65
2023-05-02T16:10:26.776Z,8.00
2023-05-02T16:12:54.525Z,8.50
2023-05-02T16:15:21.158Z,8.63
2023-05-02T16:17:47.637Z,9.02
2023-05-02T16:20:14.395Z,8.30
2023-05-02T16:22:42.336Z,8.70
2023-05-02T16:25:08.916Z,10.13
2023-05-02T16:27:35.316Z,9.73
2023-05-02T16:30:03.569Z,9.57
2023-05-02T16:32:30.304Z,8.83
2023-05-02T16:34:56.748Z,9.15
2023-05-02T16:37:23.092Z,9.13
2023-05-02T16:39:49.461Z,7.65
2023-05-02T16:42:15.870Z,7.13
2023-05-02T16:44:42.282Z,7.20
2023-05-02T16:47:10.113Z,7.93
2023-05-02T16:49:36.613Z,7.68
2023-05-02T16:52:02.989Z,7.88
2023-05-02T16:54:29.390Z,6.55
2023-05-02T16:56:55.816Z,7.90
2023-05-02T16:59:22.264Z,7.32
2023-05-02T17:01:48.692Z,6.82
2023-05-02T17:04:16.469Z,7.05
2023-05-02T17:06:42.922Z,7.38
2023-05-02T17:09:09.363Z,6.60
2023-05-02T17:11:35.785Z,6.88
2023-05-02T17:14:02.363Z,7.13
2023-05-02T17:16:28.781Z,6.47
2023-05-02T17:18:55.174Z,6.63
2023-05-02T17:21:22.998Z,6.82
2023-05-02T17:23:49.434Z,7.00
2023-05-02T17:26:15.824Z,6.90
2023-05-02T17:28:42.613Z,6.80
2023-05-02T17:31:09.113Z,6.95
2023-05-02T17:33:35.560Z,7.03
2023-05-02T17:36:01.981Z,7.40
2023-05-02T17:38:29.707Z,6.75
2023-05-02T17:40:56.085Z,7.60
2023-05-02T17:43:22.507Z,7.90
2023-05-02T17:45:48.939Z,8.27
2023-05-02T17:48:15.453Z,8.18
2023-05-02T17:50:41.877Z,6.82
2023-05-02T17:53:08.365Z,6.32
2023-05-02T17:55:37.396Z,5.68
2023-05-02T17:58:03.773Z,6.07
2023-05-02T18:00:30.204Z,5.20
2023-05-02T18:02:56.752Z,5.70
2023-05-02T18:05:23.249Z,5.13
2023-05-02T18:07:49.646Z,4.85
2023-05-02T18:10:16.017Z,5.88
2023-05-02T18:12:43.742Z,4.40
2023-05-02T18:15:10.218Z,4.80
2023-05-02T18:17:36.670Z,5.15
2023-05-02T18:20:03.416Z,5.20
2023-05-02T18:22:30.131Z,4.60
2023-05-02T18:24:56.541Z,4.93
2023-05-02T18:27:22.956Z,4.75
2023-05-02T18:29:50.713Z,4.88
2023-05-02T18:32:17.113Z,4.53
2023-05-02T18:34:43.525Z,3.90
2023-05-02T18:37:09.910Z,4.15
2023-05-02T18:39:36.350Z,3.78
2023-05-02T18:42:02.793Z,4.45
2023-05-02T18:44:29.194Z,3.33
2023-05-02T18:46:57.240Z,3.38
2023-05-02T18:49:23.704Z,3.45
2023-05-02T18:51:50.158Z,4.40
2023-05-02T18:54:16.560Z,4.20
2023-05-02T18:56:43.161Z,3.85
2023-05-02T18:59:09.610Z,3.78
2023-05-02T19:01:36.016Z,4.50
2023-05-02T19:04:04.029Z,3.70
2023-05-02T19:06:30.562Z,2.70
2023-05-02T19:08:57.034Z,2.30
2023-05-02T19:11:23.430Z,2.17
2023-05-02T19:13:50.078Z,2.10
2023-05-02T19:16:16.462Z,2.05
2023-05-02T19:18:43.197Z,2.15
2023-05-02T19:21:12.015Z,2.20
2023-05-02T19:23:38.892Z,2.60
2023-05-02T19:26:09.497Z,2.00
2023-05-02T19:28:35.890Z,2.20
2023-05-02T19:31:06.932Z,2.30
2023-05-02T19:33:33.492Z,2.00
2023-05-02T19:35:59.919Z,2.03
2023-05-02T19:38:27.728Z,2.10
2023-05-02T19:40:54.084Z,1.92
2023-05-02T19:43:20.446Z,2.40
2023-05-02T19:45:47.115Z,2.22
2023-05-02T19:48:14.661Z,2.03
2023-05-02T19:50:41.165Z,2.30
2023-05-02T19:53:07.593Z,2.33
2023-05-02T19:55:36.492Z,2.10
2023-05-02T19:58:02.964Z,2.40
2023-05-02T20:00:29.348Z,2.38
2023-05-02T20:02:55.856Z,2.20
2023-05-02T20:05:22.325Z,2.22
2023-05-02T20:07:48.742Z,2.40
2023-05-02T20:10:15.262Z,2.70
2023-05-02T20:12:43.039Z,3.00
2023-05-02T20:15:09.714Z,2.83
2023-05-02T20:17:36.137Z,3.15
2023-05-02T20:20:05.471Z,3.13
2023-05-02T20:22:32.007Z,3.25
2023-05-02T20:24:58.512Z,3.80
2023-05-02T20:27:30.926Z,3.88
2023-05-02T20:29:58.725Z,4.35
2023-05-02T20:32:25.258Z,3.60
2023-05-02T20:34:51.695Z,3.72
2023-05-02T20:37:18.127Z,3.85
2023-05-02T20:39:44.688Z,3.72
2023-05-02T20:42:11.110Z,3.10
2023-05-02T20:44:37.521Z,3.25
2023-05-02T20:47:05.345Z,3.63
2023-05-02T20:49:31.776Z,3.05
2023-05-02T20:51:58.257Z,3.90
2023-05-02T20:54:24.665Z,3.55
2023-05-02T20:56:51.011Z,3.65
2023-05-02T20:59:17.376Z,3.33
2023-05-02T21:01:43.778Z,3.13
2023-05-02T21:04:11.581Z,3.20
2023-05-02T21:06:38.219Z,2.60
2023-05-02T21:09:04.684Z,1.80
2023-05-02T21:11:31.311Z,2.10
2023-05-02T21:13:57.733Z,1.98
2023-05-02T21:16:24.184Z,1.67
2023-05-02T21:18:50.598Z,1.70
2023-05-02T21:21:28.793Z,1.58
2023-05-02T21:23:55.233Z,1.80
2023-05-02T21:26:21.588Z,2.10
2023-05-02T21:28:47.986Z,1.90
2023-05-02T21:31:14.361Z,1.83
2023-05-02T21:33:40.738Z,1.40
2023-05-02T21:36:07.517Z,1.70
2023-05-02T21:38:35.324Z,1.45
2023-05-02T21:41:02.069Z,1.55
2023-05-02T21:43:28.541Z,1.60
2023-05-02T21:45:54.934Z,1.70
2023-05-02T21:48:21.723Z,1.80
2023-05-02T21:50:48.132Z,1.80
2023-05-02T21:53:14.492Z,1.90
2023-05-02T21:55:42.282Z,1.83
2023-05-02T21:58:09.666Z,1.73
2023-05-02T22:00:36.557Z,1.90
2023-05-02T22:03:03.177Z,1.73
2023-05-02T22:05:29.707Z,1.90
2023-05-02T22:07:56.060Z,1.88
2023-05-02T22:10:22.417Z,1.83
2023-05-02T22:12:50.214Z,1.83
2023-05-02T22:15:16.607Z,1.80
2023-05-02T22:17:42.998Z,1.85
2023-05-02T22:20:10.036Z,1.90
2023-05-02T22:22:36.444Z,1.80
2023-05-02T22:25:02.896Z,1.70
2023-05-02T22:27:29.316Z,1.70
2023-05-02T22:29:57.174Z,1.67
2023-05-02T22:32:23.577Z,1.92
2023-05-02T22:34:49.946Z,1.55
2023-05-02T22:37:16.358Z,1.30
2023-05-02T22:39:42.780Z,1.52
2023-05-02T22:42:09.191Z,1.58
2023-05-02T22:44:46.794Z,1.40
2023-05-02T22:47:21.214Z,1.40
2023-05-02T22:49:47.646Z,1.50
2023-05-02T22:52:14.266Z,1.70
2023-05-02T22:54:40.724Z,1.40
2023-05-02T22:57:07.103Z,1.60
2023-05-02T22:59:33.467Z,1.23
2023-05-02T23:02:00.042Z,1.30
2023-05-02T23:04:27.969Z,1.40
2023-05-02T23:06:54.530Z,1.30
2023-05-02T23:09:20.983Z,1.50
2023-05-02T23:11:47.375Z,1.40
2023-05-02T23:14:13.779Z,1.40
2023-05-02T23:16:40.226Z,1.30
2023-05-02T23:19:06.656Z,1.52
2023-05-02T23:21:34.437Z,1.52
2023-05-02T23:24:00.832Z,1.60
2023-05-02T23:26:27.205Z,1.52
2023-05-02T23:28:53.590Z,1.50
2023-05-02T23:31:20.027Z,1.48
2023-05-02T23:33:46.480Z,1.63
2023-05-02T23:36:12.836Z,1.65
2023-05-02T23:38:40.622Z,1.73
2023-05-02T23:41:07.057Z,1.60
2023-05-02T23:43:33.475Z,1.70
2023-05-02T23:45:59.891Z,1.42
2023-05-02T23:48:26.252Z,1.70
2023-05-02T23:50:52.835Z,1.40
2023-05-02T23:53:19.318Z,1.60
2023-05-02T23:55:47.088Z,1.60
2023-05-02T23:58:13.434Z,1.45
